Time;durP1;ratioP1;P1;durP2;ratioP2;P2;SDS_P1;SDS_P2;PMS_P1;PMS_P2;Temp;Humidity;BMP_temperature;BMP_pressure;BME280_temperature;BME280_humidity;BME280_pressure;Samples;Min_cycle;Max_cycle;Signal;HPM_P1;HPM_P2
2021/12/15 00:01:14;;;;;;;29.70;14.00;;;;;;;3.06;100.00;100506.20;104211;1313;22863;-29
2021/12/15 00:03:41;;;;;;;26.40;13.10;;;;;;;3.09;100.00;100512.73;104142;1314;22467;-25
2021/12/15 00:06:12;;;;;;;37.30;12.40;;;;;;;3.01;100.00;100510.16;104027;1312;22473;-25
2021/12/15 00:08:39;;;;;;;32.20;14.10;;;;;;;2.99;100.00;100509.03;104119;1314;22718;-25
2021/12/15 00:11:05;;;;;;;30.10;15.90;;;;;;;3.03;100.00;100507.51;103912;1314;22619;-25
2021/12/15 00:13:31;;;;;;;37.60;14.70;;;;;;;3.03;100.00;100508.91;104138;1313;22561;-26
2021/12/15 00:15:57;;;;;;;32.10;15.60;;;;;;;3.06;100.00;100513.26;103907;1308;22723;-30
2021/12/15 00:18:23;;;;;;;30.60;14.90;;;;;;;3.02;100.00;100515.86;103964;1306;24158;-28
2021/12/15 00:20:49;;;;;;;29.70;14.70;;;;;;;3.02;100.00;100513.28;104156;1314;22462;-30
2021/12/15 00:23:15;;;;;;;35.00;15.50;;;;;;;2.99;100.00;100513.67;104188;1307;22435;-25
2021/12/15 00:25:42;;;;;;;32.40;14.00;;;;;;;2.94;100.00;100515.16;104195;1306;24162;-25
2021/12/15 00:28:08;;;;;;;30.70;14.70;;;;;;;2.91;100.00;100513.40;104227;1314;22472;-25
2021/12/15 00:30:33;;;;;;;30.50;14.70;;;;;;;2.84;100.00;100515.89;104137;1314;24149;-27
2021/12/15 00:32:59;;;;;;;30.30;11.50;;;;;;;2.97;100.00;100513.32;104318;1314;24241;-25
2021/12/15 00:35:25;;;;;;;37.00;16.30;;;;;;;2.89;100.00;100508.98;104254;1310;22993;-25
2021/12/15 00:37:51;;;;;;;31.30;15.80;;;;;;;2.74;100.00;100506.80;104095;1314;22464;-29
2021/12/15 00:40:19;;;;;;;34.40;16.20;;;;;;;2.68;100.00;100503.36;104082;1313;22610;-29
2021/12/15 00:42:45;;;;;;;25.60;13.60;;;;;;;2.68;100.00;100504.08;104078;1314;22450;-25
2021/12/15 00:45:11;;;;;;;27.10;12.70;;;;;;;2.75;100.00;100507.58;104107;1314;24188;-29
2021/12/15 00:47:37;;;;;;;24.90;13.80;;;;;;;2.75;100.00;100506.87;104307;1310;22450;-29
2021/12/15 00:50:06;;;;;;;23.00;13.50;;;;;;;2.77;100.00;100512.70;104122;1313;24175;-25
2021/12/15 00:52:34;;;;;;;37.80;15.80;;;;;;;2.81;100.00;100511.87;104064;1307;25352;-25
2021/12/15 00:55:01;;;;;;;31.70;15.90;;;;;;;2.82;100.00;100510.23;104237;1307;24135;-29
2021/12/15 00:57:26;;;;;;;30.70;15.50;;;;;;;2.78;100.00;100509.80;103843;1314;24173;-29
2021/12/15 00:59:52;;;;;;;33.00;15.80;;;;;;;2.79;100.00;100510.77;104176;1314;24429;-29
2021/12/15 01:02:18;;;;;;;26.80;15.10;;;;;;;2.78;100.00;100512.64;104175;1313;22450;-25
2021/12/15 01:04:44;;;;;;;32.40;13.80;;;;;;;2.78;100.00;100515.65;104317;1314;24182;-29
2021/12/15 01:07:11;;;;;;;35.80;15.20;;;;;;;2.88;100.00;100519.98;104298;1314;22459;-29
2021/12/15 01:09:43;;;;;;;34.30;15.90;;;;;;;2.84;99.99;100519.58;104142;1316;22462;-29
2021/12/15 01:12:35;;;;;;;34.40;17.50;;;;;;;2.64;100.00;100526.80;104203;1307;22735;-25
2021/12/15 01:19:59;;;;;;;33.00;14.80;;;;;;;2.61;100.00;100532.55;103957;1314;23357;-25
2021/12/15 01:22:30;;;;;;;33.00;17.60;;;;;;;2.45;100.00;100535.20;104174;1314;24238;-30
2021/12/15 01:25:00;;;;;;;38.30;13.40;;;;;;;2.55;100.00;100535.60;103966;1314;23290;-30
2021/12/15 01:27:26;;;;;;;39.00;17.20;;;;;;;2.48;100.00;100531.75;104083;1314;24292;-30
2021/12/15 01:29:52;;;;;;;37.50;16.20;;;;;;;2.51;100.00;100532.21;104114;1312;24899;-30
2021/12/15 01:32:18;;;;;;;47.60;17.00;;;;;;;2.35;100.00;100529.88;104207;1310;24148;-25
2021/12/15 01:34:44;;;;;;;39.30;14.20;;;;;;;2.45;100.00;100531.09;103896;1314;22539;-29
2021/12/15 01:37:12;;;;;;;40.90;16.50;;;;;;;2.50;100.00;100531.39;104079;1313;22440;-25
2021/12/15 01:39:38;;;;;;;33.80;16.70;;;;;;;2.46;100.00;100534.20;104347;1304;24384;-29
2021/12/15 01:42:05;;;;;;;39.50;15.90;;;;;;;2.61;100.00;100536.09;104232;1314;24132;-26
2021/12/15 01:47:00;;;;;;;35.00;17.00;;;;;;;2.60;100.00;100532.45;103732;1314;22587;-29
2021/12/15 01:49:27;;;;;;;50.20;19.30;;;;;;;2.58;100.00;100529.95;104112;1315;22528;-25
2021/12/15 01:51:54;;;;;;;27.80;13.70;;;;;;;2.45;100.00;100526.52;104121;1314;22435;-30
2021/12/15 01:54:21;;;;;;;39.30;16.20;;;;;;;2.61;100.00;100526.89;104226;1314;24169;-25
2021/12/15 01:56:47;;;;;;;34.70;16.40;;;;;;;2.45;100.00;100527.73;104189;1310;22711;-26
2021/12/15 01:59:14;;;;;;;19.80;11.50;;;;;;;2.43;100.00;100522.63;104343;1314;24239;-30
2021/12/15 02:01:40;;;;;;;16.50;7.80;;;;;;;2.49;100.00;100520.73;104225;1314;24149;-29
2021/12/15 02:04:07;;;;;;;31.10;18.20;;;;;;;2.67;100.00;100519.50;104204;1312;22812;-25
2021/12/15 02:06:33;;;;;;;38.60;15.20;;;;;;;2.65;100.00;100530.61;104095;1310;22722;-29
2021/12/15 02:08:59;;;;;;;17.70;9.50;;;;;;;2.73;100.00;100532.69;104129;1310;22471;-25
2021/12/15 02:11:26;;;;;;;34.50;13.10;;;;;;;2.80;100.00;100532.81;104250;1314;24133;-29
2021/12/15 02:13:52;;;;;;;40.00;18.80;;;;;;;2.61;100.00;100535.00;104009;1314;24370;-28
2021/12/15 02:16:18;;;;;;;42.70;17.90;;;;;;;2.52;100.00;100533.20;104036;1305;22824;-29
2021/12/15 02:18:45;;;;;;;36.10;15.70;;;;;;;2.56;100.00;100538.27;104137;1304;22466;-25
2021/12/15 02:21:16;;;;;;;30.00;13.30;;;;;;;2.50;100.00;100535.15;104193;1314;24202;-25
2021/12/15 02:23:47;;;;;;;42.60;18.70;;;;;;;2.56;100.00;100534.27;104288;1313;26157;-25
2021/12/15 02:26:17;;;;;;;47.50;19.60;;;;;;;2.58;100.00;100541.27;103941;1316;22876;-29
2021/12/15 02:28:46;;;;;;;43.30;19.00;;;;;;;2.55;100.00;100538.64;104179;1314;22465;-29
2021/12/15 02:31:20;;;;;;;36.50;16.70;;;;;;;2.51;100.00;100536.46;104081;1316;22439;-25
2021/12/15 02:33:57;;;;;;;26.40;11.30;;;;;;;2.60;100.00;100537.15;104175;1314;23233;-25
2021/12/15 02:38:52;;;;;;;31.40;15.20;;;;;;;2.51;100.00;100542.13;104191;1314;24152;-25
2021/12/15 02:41:20;;;;;;;27.60;14.20;;;;;;;2.51;100.00;100544.76;103973;1307;24147;-27
2021/12/15 02:43:47;;;;;;;31.50;15.60;;;;;;;2.54;100.00;100546.16;103908;1314;24195;-29
2021/12/15 02:46:13;;;;;;;39.20;16.80;;;;;;;2.65;100.00;100550.40;103977;1314;22459;-25
2021/12/15 02:48:40;;;;;;;27.30;14.20;;;;;;;2.74;100.00;100553.10;103909;1313;24192;-25
2021/12/15 02:51:06;;;;;;;34.60;16.20;;;;;;;2.75;100.00;100556.20;104286;1314;24571;-29
2021/12/15 02:53:32;;;;;;;29.80;13.60;;;;;;;2.88;100.00;100551.89;104090;1307;22488;-25
2021/12/15 02:55:59;;;;;;;23.60;12.30;;;;;;;3.04;100.00;100554.31;104120;1313;22446;-24
2021/12/15 02:58:31;;;;;;;31.30;13.40;;;;;;;3.03;100.00;100555.48;104194;1310;24139;-29
2021/12/15 03:01:05;;;;;;;30.10;14.40;;;;;;;2.97;100.00;100560.53;104266;1314;22722;-25
2021/12/15 03:06:08;;;;;;;29.80;14.00;;;;;;;2.80;100.00;100566.79;103970;1314;22461;-29
2021/12/15 03:16:02;;;;;;;17.70;9.00;;;;;;;2.82;100.00;100561.34;104099;1314;24133;-25
2021/12/15 03:18:28;;;;;;;34.30;16.20;;;;;;;2.82;100.00;100559.58;104027;1301;24281;-25
2021/12/15 03:20:58;;;;;;;30.70;15.00;;;;;;;2.76;100.00;100562.98;104057;1305;22460;-25
2021/12/15 03:23:31;;;;;;;27.80;14.50;;;;;;;2.74;100.00;100565.98;104104;1316;22673;-29
2021/12/15 03:25:59;;;;;;;29.00;11.40;;;;;;;2.73;100.00;100566.58;104212;1314;22442;-25
2021/12/15 03:38:22;;;;;;;36.60;17.30;;;;;;;2.84;100.00;100568.08;104168;1310;22457;-29
2021/12/15 03:40:48;;;;;;;28.40;14.20;;;;;;;2.81;100.00;100565.83;104338;1314;22799;-31
2021/12/15 03:43:14;;;;;;;28.40;14.90;;;;;;;2.85;100.00;100570.13;104141;1314;22458;-25
2021/12/15 03:45:43;;;;;;;36.90;17.70;;;;;;;2.87;100.00;100569.23;104051;1314;24120;-29
2021/12/15 03:48:11;;;;;;;35.90;17.30;;;;;;;2.86;100.00;100568.61;103890;1314;22471;-26
2021/12/15 03:50:37;;;;;;;40.90;15.50;;;;;;;2.86;100.00;100568.48;104069;1302;22735;-30
2021/12/15 03:53:04;;;;;;;38.70;15.90;;;;;;;2.89;100.00;100573.16;104241;1313;22579;-29
2021/12/15 03:55:32;;;;;;;42.40;17.10;;;;;;;2.91;100.00;100574.63;104307;1314;22741;-25
2021/12/15 03:57:58;;;;;;;39.00;15.30;;;;;;;2.79;100.00;100574.11;103761;1314;625402;-27
2021/12/15 04:00:24;;;;;;;30.00;11.00;;;;;;;2.80;100.00;100576.88;104167;1311;24147;-30
2021/12/15 04:02:50;;;;;;;45.00;18.00;;;;;;;2.79;100.00;100578.70;104267;1314;24174;-29
2021/12/15 04:05:18;;;;;;;47.50;17.10;;;;;;;2.78;100.00;100578.79;104205;1314;24131;-25
2021/12/15 04:07:44;;;;;;;33.50;15.50;;;;;;;2.85;100.00;100577.89;104127;1313;22436;-26
2021/12/15 04:10:12;;;;;;;45.50;17.00;;;;;;;2.86;100.00;100581.71;104059;1313;24144;-25
2021/12/15 04:12:38;;;;;;;39.30;15.40;;;;;;;2.94;100.00;100576.87;104213;1314;24174;-29
2021/12/15 04:17:36;;;;;;;34.30;15.40;;;;;;;2.96;100.00;100580.61;104006;1314;25041;-29
2021/12/15 04:20:07;;;;;;;29.10;11.50;;;;;;;2.95;100.00;100586.17;104171;1314;24287;-25
2021/12/15 04:22:33;;;;;;;22.20;10.40;;;;;;;3.02;100.00;100588.25;104067;1314;22453;-29
2021/12/15 04:24:58;;;;;;;42.00;17.20;;;;;;;3.12;100.00;100588.59;104084;1313;22456;-29
2021/12/15 04:27:25;;;;;;;42.60;16.50;;;;;;;3.17;100.00;100591.30;103957;1314;22560;-25
2021/12/15 04:29:52;;;;;;;29.60;12.50;;;;;;;3.04;100.00;100597.31;104139;1313;24245;-29
2021/12/15 04:32:24;;;;;;;29.60;12.80;;;;;;;2.77;100.00;100594.95;104349;1314;24180;-29
2021/12/15 04:34:50;;;;;;;33.40;13.60;;;;;;;2.78;100.00;100600.04;104145;1314;22475;-29
2021/12/15 04:37:16;;;;;;;33.90;16.20;;;;;;;2.71;100.00;100605.46;104290;1313;22536;-25
2021/12/15 04:39:42;;;;;;;39.00;11.70;;;;;;;2.84;100.00;100606.61;104147;1314;24262;-25
2021/12/15 04:42:08;;;;;;;41.30;16.60;;;;;;;2.84;100.00;100606.66;104043;1307;22466;-25
2021/12/15 04:44:34;;;;;;;44.50;18.10;;;;;;;2.82;100.00;100611.72;104054;1307;22726;-29
2021/12/15 04:47:07;;;;;;;31.30;15.70;;;;;;;2.75;100.00;100613.88;104307;1316;22466;-28
2021/12/15 04:49:37;;;;;;;36.10;15.70;;;;;;;2.80;100.00;100615.08;103931;1307;23920;-25
2021/12/15 04:52:04;;;;;;;40.10;16.30;;;;;;;2.94;100.00;100617.91;104193;1314;24148;-25
2021/12/15 04:54:30;;;;;;;40.30;15.20;;;;;;;2.72;100.00;100616.55;104240;1314;23874;-26
2021/12/15 04:56:55;;;;;;;40.40;14.80;;;;;;;2.79;100.00;100617.42;104190;1314;22515;-29
2021/12/15 04:59:22;;;;;;;41.70;15.50;;;;;;;2.70;100.00;100616.37;104110;1314;24145;-29
2021/12/15 05:01:48;;;;;;;27.70;13.70;;;;;;;2.70;100.00;100617.80;104025;1314;24194;-30
2021/12/15 05:04:14;;;;;;;38.40;15.90;;;;;;;2.68;100.00;100611.89;104153;1314;22469;-30
2021/12/15 05:06:40;;;;;;;38.00;15.00;;;;;;;2.70;100.00;100610.17;104321;1314;22524;-30
2021/12/15 05:09:07;;;;;;;44.10;18.10;;;;;;;2.77;100.00;100611.40;104248;1313;24209;-26
2021/12/15 05:11:33;;;;;;;35.20;16.80;;;;;;;2.63;100.00;100606.83;104012;1314;22456;-30
2021/12/15 05:13:59;;;;;;;25.70;11.10;;;;;;;2.72;100.00;100603.86;104272;1314;22466;-26
2021/12/15 05:16:24;;;;;;;24.10;10.40;;;;;;;2.70;100.00;100601.69;104288;1313;22797;-25
2021/12/15 05:18:51;;;;;;;30.30;14.00;;;;;;;2.74;100.00;100603.19;104305;1313;22439;-29
2021/12/15 05:21:17;;;;;;;38.20;15.80;;;;;;;2.62;100.00;100601.60;104240;1314;23942;-25
2021/12/15 05:23:45;;;;;;;27.90;11.60;;;;;;;2.59;100.00;100601.81;104184;1313;24203;-26
2021/12/15 05:26:12;;;;;;;38.10;15.10;;;;;;;2.62;100.00;100603.01;104226;1307;22436;-30
2021/12/15 05:28:38;;;;;;;33.50;13.70;;;;;;;2.63;100.00;100599.02;104151;1314;22442;-29
2021/12/15 05:31:04;;;;;;;33.90;13.50;;;;;;;2.65;100.00;100601.70;103890;1313;24147;-30
2021/12/15 05:33:29;;;;;;;31.60;14.80;;;;;;;2.68;100.00;100605.17;104089;1314;24127;-25
2021/12/15 05:35:56;;;;;;;36.50;16.10;;;;;;;2.71;100.00;100608.02;104006;1313;24373;-25
2021/12/15 05:38:23;;;;;;;41.50;14.40;;;;;;;2.76;100.00;100608.12;104076;1311;22490;-25
2021/12/15 05:40:49;;;;;;;29.30;12.60;;;;;;;2.80;100.00;100612.23;104313;1316;22482;-30
2021/12/15 05:43:15;;;;;;;33.50;16.00;;;;;;;2.86;100.00;100616.61;103958;1314;24080;-25
2021/12/15 05:45:41;;;;;;;43.80;17.00;;;;;;;2.81;100.00;100615.73;104160;1314;24136;-26
2021/12/15 05:48:08;;;;;;;38.80;15.50;;;;;;;2.85;100.00;100617.73;104161;1313;24261;-29
2021/12/15 05:50:34;;;;;;;35.10;15.20;;;;;;;2.80;100.00;100623.77;104228;1316;22470;-29
2021/12/15 05:53:01;;;;;;;38.70;16.00;;;;;;;2.66;100.00;100623.92;104146;1314;24224;-29
2021/12/15 05:55:28;;;;;;;33.80;14.60;;;;;;;2.89;100.00;100623.23;104107;1315;25903;-30
2021/12/15 05:57:53;;;;;;;36.60;14.00;;;;;;;2.79;100.00;100625.08;104153;1314;24325;-25
2021/12/15 06:00:22;;;;;;;28.30;13.30;;;;;;;2.71;100.00;100631.84;104015;1314;22708;-29
2021/12/15 06:02:48;;;;;;;29.80;11.20;;;;;;;2.76;100.00;100638.33;104191;1314;25437;-25
2021/12/15 06:05:14;;;;;;;26.00;10.70;;;;;;;2.91;100.00;100639.70;103847;1314;24192;-25
2021/12/15 06:07:40;;;;;;;35.80;12.90;;;;;;;3.01;100.00;100646.60;103756;1314;24173;-29
2021/12/15 06:10:07;;;;;;;23.70;10.50;;;;;;;2.93;100.00;100645.61;104175;1314;22785;-25
2021/12/15 06:12:33;;;;;;;23.40;8.90;;;;;;;2.97;100.00;100653.92;104264;1314;22533;-29
2021/12/15 06:14:58;;;;;;;20.50;10.90;;;;;;;2.91;100.00;100654.90;103974;1314;24238;-29
2021/12/15 06:17:26;;;;;;;26.40;12.70;;;;;;;2.86;100.00;100657.07;103988;1307;24177;-29
2021/12/15 06:19:53;;;;;;;21.30;9.20;;;;;;;2.82;100.00;100656.67;104104;1314;22941;-26
2021/12/15 06:22:24;;;;;;;27.40;9.60;;;;;;;2.92;100.00;100660.48;104032;1314;22469;-31
2021/12/15 06:24:51;;;;;;;30.80;13.60;;;;;;;2.96;100.00;100662.34;104120;1315;23872;-25
2021/12/15 06:27:19;;;;;;;16.40;8.10;;;;;;;2.96;100.00;100663.23;103853;1307;24255;-30
2021/12/15 06:29:46;;;;;;;12.90;6.20;;;;;;;2.88;100.00;100666.27;103836;1314;24219;-31
2021/12/15 06:32:12;;;;;;;25.10;11.70;;;;;;;2.87;100.00;100662.80;104096;1314;24262;-31
2021/12/15 06:34:37;;;;;;;32.30;13.10;;;;;;;2.71;100.00;100665.80;104086;1314;24264;-26
2021/12/15 06:37:04;;;;;;;22.20;8.50;;;;;;;2.75;100.00;100663.18;104120;1313;22542;-29
2021/12/15 06:39:30;;;;;;;25.50;10.60;;;;;;;2.75;100.00;100666.25;103974;1314;22449;-31
2021/12/15 06:41:56;;;;;;;26.80;11.40;;;;;;;2.80;100.00;100664.20;104045;1313;24247;-30
2021/12/15 06:44:22;;;;;;;20.70;11.00;;;;;;;2.87;100.00;100670.80;104010;1316;24145;-26
2021/12/15 06:59:14;;;;;;;15.00;7.50;;;;;;;3.08;100.00;100684.95;104112;1314;22642;-31
2021/12/15 07:01:40;;;;;;;23.20;10.20;;;;;;;3.13;100.00;100688.48;104089;1315;22515;-26
2021/12/15 07:04:06;;;;;;;19.70;9.40;;;;;;;3.04;100.00;100687.72;103680;1314;24270;-26
2021/12/15 07:06:32;;;;;;;23.10;7.70;;;;;;;3.16;100.00;100687.29;104124;1316;24281;-31
2021/12/15 07:08:58;;;;;;;25.40;11.30;;;;;;;3.30;100.00;100688.38;103948;1316;24128;-26
2021/12/15 07:11:24;;;;;;;20.40;8.40;;;;;;;3.04;100.00;100689.52;104018;1311;24159;-26
2021/12/15 07:13:50;;;;;;;17.10;7.50;;;;;;;3.21;100.00;100691.21;103859;1314;24267;-28
2021/12/15 07:16:18;;;;;;;25.70;9.20;;;;;;;3.20;100.00;100692.69;104223;1316;24149;-30
2021/12/15 07:21:17;;;;;;;15.90;4.20;;;;;;;3.27;100.00;100691.95;104026;1315;24266;-26
2021/12/15 07:23:44;;;;;;;14.80;6.60;;;;;;;3.34;100.00;100703.30;104154;1316;22473;-27
2021/12/15 07:26:10;;;;;;;21.40;8.60;;;;;;;3.49;100.00;100703.43;103979;1314;24385;-30
2021/12/15 07:28:36;;;;;;;23.40;9.00;;;;;;;3.41;100.00;100706.27;103846;1314;22466;-31
2021/12/15 07:31:01;;;;;;;18.50;8.60;;;;;;;3.32;100.00;100707.52;104032;1314;22730;-31
2021/12/15 07:33:27;;;;;;;12.90;5.50;;;;;;;3.29;100.00;100700.85;104048;1314;22463;-31
2021/12/15 07:35:54;;;;;;;10.10;4.20;;;;;;;3.47;100.00;100703.20;103824;1313;24168;-31
2021/12/15 07:38:20;;;;;;;15.20;8.30;;;;;;;3.36;100.00;100702.63;103907;1314;24146;-30
2021/12/15 07:40:45;;;;;;;29.90;10.80;;;;;;;3.27;100.00;100702.40;104063;1314;24265;-26
2021/12/15 07:43:23;;;;;;;15.60;7.50;;;;;;;3.38;100.00;100702.44;103848;1311;24252;-31
2021/12/15 07:45:55;;;;;;;16.60;7.30;;;;;;;3.43;100.00;100700.69;103690;1315;22465;-30
2021/12/15 07:48:22;;;;;;;26.80;10.50;;;;;;;3.36;100.00;100701.36;103969;1314;22565;-25
2021/12/15 07:50:50;;;;;;;20.50;8.50;;;;;;;3.41;100.00;100706.14;104084;1316;22497;-25
2021/12/15 07:53:18;;;;;;;16.60;5.90;;;;;;;3.44;100.00;100707.10;104041;1314;24258;-26
2021/12/15 07:55:45;;;;;;;25.80;9.90;;;;;;;3.49;100.00;100711.73;104044;1305;24270;-25
2021/12/15 07:58:11;;;;;;;13.00;6.60;;;;;;;3.37;100.00;100715.98;104003;1314;24097;-25
2021/12/15 08:00:38;;;;;;;13.40;5.30;;;;;;;3.49;100.00;100717.21;103977;1314;22808;-30
2021/12/15 08:03:05;;;;;;;9.20;5.00;;;;;;;3.59;100.00;100720.84;103953;1308;22547;-26
2021/12/15 08:05:31;;;;;;;25.30;9.00;;;;;;;3.56;100.00;100721.96;103794;1314;24252;-25
2021/12/15 08:07:56;;;;;;;32.90;8.20;;;;;;;3.55;100.00;100722.23;104002;1314;24150;-29
2021/12/15 08:10:22;;;;;;;15.60;7.40;;;;;;;3.52;100.00;100720.49;103963;1314;24266;-30
2021/12/15 08:20:11;;;;;;;23.70;10.00;;;;;;;3.50;100.00;100728.83;104103;1314;24157;-25
2021/12/15 08:22:38;;;;;;;18.80;7.80;;;;;;;3.43;100.00;100733.95;103907;1315;22464;-30
2021/12/15 08:25:06;;;;;;;46.10;18.90;;;;;;;3.75;100.00;100734.88;103745;1313;24249;-30
2021/12/15 08:27:31;;;;;;;66.50;23.40;;;;;;;3.72;100.00;100733.98;104018;1314;22465;-26
2021/12/15 08:29:57;;;;;;;64.20;23.20;;;;;;;3.75;100.00;100734.98;103960;1314;24116;-25
2021/12/15 08:32:23;;;;;;;36.00;13.00;;;;;;;3.61;100.00;100728.14;103922;1314;24407;-27
2021/12/15 08:34:49;;;;;;;22.60;9.60;;;;;;;3.73;100.00;100730.59;104007;1314;22561;-25
2021/12/15 08:37:15;;;;;;;18.10;9.00;;;;;;;4.00;100.00;100725.94;103791;1307;24157;-25
2021/12/15 08:39:42;;;;;;;32.50;13.10;;;;;;;4.14;100.00;100728.75;103838;1315;24122;-30
2021/12/15 08:42:09;;;;;;;23.90;10.50;;;;;;;3.99;100.00;100735.13;104217;1314;24608;-30
2021/12/15 08:44:35;;;;;;;20.60;8.90;;;;;;;3.99;100.00;100739.66;104156;1314;24158;-25
2021/12/15 08:47:01;;;;;;;20.90;10.30;;;;;;;4.02;100.00;100741.54;104319;1314;22462;-26
2021/12/15 08:49:26;;;;;;;12.60;7.80;;;;;;;4.12;100.00;100732.81;104238;1313;24159;-26
2021/12/15 08:51:53;;;;;;;17.60;8.90;;;;;;;4.35;100.00;100734.83;104107;1314;22443;-29
2021/12/15 08:54:20;;;;;;;17.90;7.40;;;;;;;4.27;100.00;100734.77;104241;1314;22537;-30
2021/12/15 08:56:46;;;;;;;25.70;10.20;;;;;;;4.34;100.00;100742.61;104193;1313;22475;-30
2021/12/15 08:59:12;;;;;;;25.40;10.00;;;;;;;4.45;100.00;100748.77;103896;1314;24288;-25
2021/12/15 09:01:38;;;;;;;26.10;10.30;;;;;;;4.51;100.00;100754.31;104224;1316;23927;-29
2021/12/15 09:04:09;;;;;;;24.50;10.60;;;;;;;4.61;100.00;100750.98;103955;1316;23759;-25
2021/12/15 09:06:35;;;;;;;15.90;7.10;;;;;;;4.65;100.00;100750.54;104218;1314;22734;-25
2021/12/15 09:09:03;;;;;;;29.00;11.20;;;;;;;4.59;100.00;100756.27;104289;1313;22488;-33
2021/12/15 09:11:29;;;;;;;24.10;9.20;;;;;;;4.71;100.00;100751.27;104149;1310;22531;-31
2021/12/15 09:13:56;;;;;;;24.70;8.50;;;;;;;4.61;100.00;100761.17;104248;1314;24135;-31
2021/12/15 09:16:22;;;;;;;27.40;9.90;;;;;;;4.75;100.00;100760.18;104118;1314;22496;-31
2021/12/15 09:18:49;;;;;;;29.60;10.80;;;;;;;4.64;100.00;100758.60;104216;1311;24158;-31
2021/12/15 09:21:16;;;;;;;32.00;11.20;;;;;;;4.76;100.00;100750.17;104384;1314;24295;-27
2021/12/15 09:23:42;;;;;;;26.00;9.90;;;;;;;4.83;100.00;100744.26;104276;1316;22750;-31
2021/12/15 09:26:07;;;;;;;26.40;10.80;;;;;;;4.48;100.00;100746.56;104083;1314;24134;-26
2021/12/15 09:28:34;;;;;;;26.80;9.00;;;;;;;4.42;100.00;100743.02;103866;1314;22453;-30
2021/12/15 09:31:04;;;;;;;25.10;9.50;;;;;;;4.41;100.00;100745.88;104167;1314;25297;-26
2021/12/15 09:33:31;;;;;;;23.70;9.40;;;;;;;4.44;100.00;100742.98;104256;1307;22614;-30
2021/12/15 09:35:57;;;;;;;20.00;8.70;;;;;;;4.65;100.00;100736.48;104288;1313;22461;-30
2021/12/15 09:38:23;;;;;;;22.50;10.10;;;;;;;4.72;100.00;100743.91;104396;1314;22461;-26
2021/12/15 09:40:51;;;;;;;17.60;8.50;;;;;;;4.74;100.00;100744.80;104265;1314;22465;-26
2021/12/15 09:43:17;;;;;;;19.80;8.70;;;;;;;5.13;99.87;100735.88;104241;1315;22544;-30
2021/12/15 09:45:51;;;;;;;22.80;8.60;;;;;;;4.64;99.97;100741.54;104349;1314;22482;-26
2021/12/15 10:18:19;;;;;;;21.50;8.90;;;;;;;4.63;100.00;100714.79;104374;1315;22472;-30
2021/12/15 10:20:46;;;;;;;19.00;9.00;;;;;;;4.64;100.00;100710.34;104064;1314;22444;-30
2021/12/15 10:23:15;;;;;;;17.30;8.70;;;;;;;4.66;100.00;100712.32;104140;1315;22603;-26
2021/12/15 10:25:45;;;;;;;25.20;12.70;;;;;;;4.72;100.00;100709.86;103810;1310;23932;-27
2021/12/15 10:28:12;;;;;;;15.20;8.60;;;;;;;4.68;100.00;100711.58;103843;1314;22734;-26
2021/12/15 10:30:41;;;;;;;26.10;12.00;;;;;;;4.71;100.00;100708.16;104172;1314;24151;-26
2021/12/15 10:33:11;;;;;;;16.20;8.00;;;;;;;4.77;100.00;100706.64;104147;1306;22626;-30
2021/12/15 10:35:40;;;;;;;17.80;9.50;;;;;;;4.81;100.00;100706.64;104025;1314;24367;-30
2021/12/15 10:38:10;;;;;;;17.10;8.90;;;;;;;4.90;100.00;100700.86;104191;1314;24332;-30
2021/12/15 10:40:40;;;;;;;24.70;15.20;;;;;;;5.01;100.00;100702.16;104255;1311;23176;-26
2021/12/15 10:43:06;;;;;;;24.70;9.30;;;;;;;5.06;100.00;100700.95;104310;1313;22436;-26
2021/12/15 10:45:36;;;;;;;23.70;10.00;;;;;;;5.16;100.00;100697.48;104318;1314;22547;-26
2021/12/15 10:48:02;;;;;;;18.50;9.70;;;;;;;5.23;100.00;100702.02;103947;1314;22830;-26
2021/12/15 10:50:28;;;;;;;24.20;8.80;;;;;;;5.10;100.00;100701.35;103992;1314;22665;-30
2021/12/15 10:52:57;;;;;;;21.50;7.70;;;;;;;5.24;100.00;100701.05;104134;1314;24139;-26
2021/12/15 10:55:29;;;;;;;22.70;8.20;;;;;;;5.18;100.00;100701.04;103893;1314;22819;-30
2021/12/15 10:57:55;;;;;;;15.00;6.90;;;;;;;5.17;100.00;100708.07;104204;1316;22864;-26
2021/12/15 11:00:22;;;;;;;31.70;13.10;;;;;;;5.16;100.00;100707.25;104134;1314;24150;-26
2021/12/15 11:02:48;;;;;;;30.20;16.30;;;;;;;5.17;100.00;100710.01;104188;1314;24207;-26
2021/12/15 11:05:18;;;;;;;14.70;7.40;;;;;;;5.19;100.00;100702.86;104157;1307;22470;-26
2021/12/15 11:07:46;;;;;;;25.40;10.10;;;;;;;5.17;100.00;100702.91;104019;1313;22702;-30
2021/12/15 11:10:22;;;;;;;13.80;6.90;;;;;;;5.14;100.00;100699.42;104150;1307;22683;-26
2021/12/15 11:12:50;;;;;;;18.20;7.30;;;;;;;5.11;100.00;100689.52;103989;1304;25264;-30
2021/12/15 11:15:22;;;;;;;16.60;8.00;;;;;;;5.10;100.00;100682.54;104141;1314;23238;-26
2021/12/15 11:17:52;;;;;;;21.60;8.60;;;;;;;5.10;100.00;100674.70;104080;1314;22799;-30
2021/12/15 11:20:20;;;;;;;19.00;7.50;;;;;;;5.32;100.00;100672.35;104126;1305;24204;-30
2021/12/15 11:22:52;;;;;;;14.70;6.70;;;;;;;5.30;100.00;100665.05;104051;1314;24190;-26
2021/12/15 11:25:23;;;;;;;13.80;6.50;;;;;;;5.32;100.00;100661.48;103819;1316;25809;-30
2021/12/15 11:27:52;;;;;;;15.40;7.10;;;;;;;5.30;100.00;100664.98;104133;1314;22478;-26
2021/12/15 11:30:22;;;;;;;18.30;5.50;;;;;;;5.27;100.00;100661.96;103791;1313;24148;-30
2021/12/15 11:32:49;;;;;;;34.30;13.70;;;;;;;5.34;100.00;100661.99;103999;1307;22814;-30
2021/12/15 11:35:17;;;;;;;16.10;8.80;;;;;;;5.33;100.00;100662.27;104003;1314;24308;-26
2021/12/15 11:37:47;;;;;;;61.60;28.20;;;;;;;5.46;100.00;100659.17;103950;1314;25276;-26
2021/12/15 11:40:15;;;;;;;57.40;30.60;;;;;;;5.40;100.00;100659.92;103663;1310;22460;-26
2021/12/15 11:42:41;;;;;;;22.10;12.00;;;;;;;5.32;100.00;100653.98;103436;1314;24091;-30
2021/12/15 11:45:08;;;;;;;12.90;6.90;;;;;;;5.31;100.00;100645.93;103802;1310;24361;-26
2021/12/15 11:47:36;;;;;;;11.30;5.20;;;;;;;5.52;100.00;100653.53;103851;1316;24102;-25
2021/12/15 11:50:07;;;;;;;10.20;5.30;;;;;;;5.47;100.00;100656.08;103720;1310;22465;-26
2021/12/15 11:52:39;;;;;;;16.70;7.20;;;;;;;5.54;100.00;100656.38;103871;1314;22537;-26
2021/12/15 11:55:07;;;;;;;13.40;6.40;;;;;;;5.50;100.00;100659.00;103749;1313;24122;-26
2021/12/15 11:57:32;;;;;;;18.10;8.70;;;;;;;5.56;100.00;100666.13;103715;1303;24175;-25
2021/12/15 12:00:05;;;;;;;14.90;7.60;;;;;;;5.61;100.00;100661.48;103419;1313;397792;-26
2021/12/15 12:02:35;;;;;;;20.30;6.40;;;;;;;5.66;100.00;100657.27;103836;1310;22466;-26
2021/12/15 12:05:05;;;;;;;17.30;8.70;;;;;;;5.54;100.00;100659.74;103641;1313;24380;-30
2021/12/15 12:07:34;;;;;;;15.50;7.90;;;;;;;5.64;100.00;100664.41;103788;1310;24371;-26
2021/12/15 12:10:04;;;;;;;17.30;7.40;;;;;;;5.71;100.00;100667.67;103741;1314;24346;-30
2021/12/15 12:12:36;;;;;;;22.10;8.60;;;;;;;5.68;100.00;100666.88;103943;1314;24150;-30
2021/12/15 12:15:04;;;;;;;11.30;5.80;;;;;;;5.56;100.00;100669.34;103614;1314;22542;-30
2021/12/15 12:17:33;;;;;;;17.60;9.00;;;;;;;5.64;100.00;100667.39;103622;1314;24382;-26
2021/12/15 12:20:05;;;;;;;14.90;7.50;;;;;;;5.76;100.00;100666.52;103739;1314;22579;-30
2021/12/15 12:22:32;;;;;;;18.90;9.30;;;;;;;5.65;100.00;100666.47;103831;1313;22843;-26
2021/12/15 12:24:59;;;;;;;20.30;7.20;;;;;;;5.80;100.00;100664.39;103772;1307;24406;-30
2021/12/15 12:27:26;;;;;;;18.10;8.20;;;;;;;5.63;100.00;100670.89;103853;1314;24127;-30
2021/12/15 12:29:53;;;;;;;20.10;8.60;;;;;;;5.55;100.00;100669.20;103590;1310;22488;-26